Tiempo atmosférico en la estación meteorológica de Jaca, Huesca (830 m.)



Fecha
DESCASC
Temp. máxima en grados centígrados (hora)
DESCASC
Temp. mínima en grados centígrados (hora)
DESCASC
Temp. media en grados centígrados
DESCASC
Racha de viento máxima en m/sg (hora)
DESCASC
Velocidad máxima media en intervalos de 10 minutos(hora)
DESCASC
Precipitaciones diarias en mm
DESCASC
Precipitaciones de 00:00 a 06:00 en mm
DESCASC
Precipitaciones de 06:00 a 12:00 en mm
DESCASC
Precipitaciones de 12:00 a 18:00 en mm
DESCASC
Precipitaciones de 18:00 a 24:00 en mm
DESCASC
23-06-2019 30.3 (18:20) 13.5 (07:00) 21.9 7.22 (12:50) 3.33 (14:40) 0 0 0 0 0
22-06-2019 27.7 (17:20) 7.6 (05:50) 17.7 7.5 (21:50) 4.44 (21:50) 0 0 0 0 0
21-06-2019 22.3 (18:20) 11.9 (23:59) 17.1 8.33 (15:40) 3.33 (15:40) 22.4 20.1 2.3 0 0
20-06-2019 26.3 (15:10) 10.6 (00:00) 18.4 8.61 (18:30) 5 (23:50) 8.2 0 0 0 8.2
19-06-2019 27.5 (15:20) 11.5 (00:00) 19.5 7.22 (22:20) 4.72 (22:10) 0 0 0 0 0
18-06-2019 29.8 (16:50) 15.6 (00:00) 22.7 9.72 (17:00) 3.89 (15:50) 0.4 0.4 0 0 0
17-06-2019 29.9 (17:20) 10.8 (00:00) 20.3 8.33 (16:10) 3.61 (02:50) 0 0 0 0 0
16-06-2019 27.1 (18:00) 6.2 (00:00) 16.7 7.78 (23:00) 5 (23:00) 0 0 0 0 0
15-06-2019 22.9 (16:50) 9.6 (00:00) 16.3 9.17 (22:20) 5.56 (21:50) 0 0 0 0 0
14-06-2019 22.9 (18:20) 11.6 (00:00) 17.3 8.33 (14:10) 5 (14:10) 2.8 0 0 2.8 0
13-06-2019 22.5 (16:50) 9.8 (00:00) 16.2 14.17 (14:20) 4.17 (13:30) 0.5 0 0.5 0 0
12-06-2019 19.8 (17:30) 0.8 (00:00) 10.3 7.22 (14:30) 3.89 (06:00) 0 0 0 0 0
11-06-2019 16.5 (16:00) 5.3 (00:00) 10.9 13.06 (18:20) 5.83 (18:30) 1.7 1.3 0.4 0 0
10-06-2019 19.8 (15:50) 8 (00:00) 13.9 11.11 (17:10) 4.17 (16:00) 0 0 0 0 0
09-06-2019 25.5 (17:50) 11.6 (00:00) 18.6 9.44 (00:10) 3.89 (00:10) 0 0 0 0 0
08-06-2019 22.4 (15:10) 3.5 (00:00) 12.9 8.33 (01:10) 5.28 (01:20) 0 0 0 0 0
07-06-2019 18.9 (16:20) 8.2 (00:00) 13.5 10.28 (00:10) 5.83 (22:10) 3 0.2 2.8 0 0
06-06-2019 20.2 (17:00) 5.5 (00:00) 12.9 13.89 (12:50) 5.56 (21:20) 0 0 0 0 0
05-06-2019 16.2 (18:20) 6.3 (00:00) 11.3 12.5 (17:30) 6.11 (17:30) 12.7 0.4 12.1 0.2 0
04-06-2019 29 (17:10) 13.6 (00:00) 21.3 12.5 (21:40) 5.28 (21:40) 2.2 0 0 0 2.2
03-06-2019 29.7 (16:50) 14.4 (00:00) 22.1 7.22 (17:00) 3.33 (00:10) 0.1 0.1 0 0 0
02-06-2019 30.8 (17:30) 12.3 (00:00) 21.5 8.61 (00:10) 3.33 (05:00) 0 0 0 0 0
01-06-2019 29 (17:40) 11.4 (00:00) 20.2 7.5 (23:00) 3.89 (22:10) 0 0 0 0 0
31-05-2019 27.3 (17:20) 8 (00:00) 17.6 7.22 (00:30) 4.17 (00:30) 0 0 0 0 0
30-05-2019 26.8 (18:10) 4.7 (00:00) 15.7 13.33 (20:50) 8.33 (20:30) 0 0 0 0 0
29-05-2019 19.3 (18:30) 3.7 (00:00) 11.5 18.61 (11:10) 10.28 (16:10) 0 0 0 0 0
28-05-2019 18.2 (16:10) 5.3 (00:00) 11.8 16.39 (16:50) 8.89 (15:20) 0 0 0 0 0
27-05-2019 21.8 (16:40) 4.7 (00:00) 13.2 11.94 (18:50) 4.72 (18:10) 0 0 0 0 0
26-05-2019 20.8 (16:30) 4.1 (00:00) 12.4 11.11 (20:20) 5.83 (20:20) 0 0 0 0 0

Gráficas

Temp. máximas Temp. mínimas Temp. medias Precipitaciones Rachas de viento máximas Velocidades máximas media en intervalos de 10 minutos

Datos horarios

Fecha y hora oficial Temperatura (ºC) Velocidad del viento (km/h) Dirección del viento Racha (km/h) Dirección de racha Precipitación (mm) Presión (hPa) Tendencia (hPa) Humedad (%)
2019-06-24 23:00:00 22.3 3 Sudeste 10 Sudeste 0 -- -- 31
2019-06-24 22:00:00 23.3 2 Nordeste 17 Sudeste 0 -- -- 30
2019-06-24 21:00:00 26 0 Calma 9 Sudeste 0 -- -- 27
2019-06-24 20:00:00 27.4 6 Sur 18 Sur 0 -- -- 25
2019-06-24 19:00:00 28 6 Sur 22 Sur 0 -- -- 25
2019-06-24 18:00:00 28.2 6 Sur 20 Sudeste 0 -- -- 24
2019-06-24 17:00:00 28.3 9 Sudeste 28 Sur 0 -- -- 23
2019-06-24 16:00:00 28.7 9 Sur 28 Sur 0 -- -- 22
2019-06-24 15:00:00 28 13 Sudeste 32 Sudeste 0 -- -- 23
2019-06-24 14:00:00 27.8 10 Sudeste 30 Sudeste 0 -- -- 24
2019-06-24 13:00:00 26.4 10 Sudeste 29 Este 0 -- -- 25
2019-06-24 12:00:00 27 12 Sudeste 32 Sudeste 0 -- -- 25
2019-06-24 11:00:00 26.9 10 Sudeste 32 Sudeste 0 -- -- 26
2019-06-24 10:00:00 25.3 10 Sudeste 30 Sudeste 0 -- -- 30
2019-06-24 09:00:00 22.3 6 Sudeste 15 Sur 0 -- -- 36
2019-06-24 08:00:00 18.9 3 Este 13 Sudeste 0 -- -- 37
2019-06-24 07:00:00 18.5 7 Sudeste 20 Sudeste 0 -- -- 35
2019-06-24 06:00:00 18.7 8 Sudeste 17 Sudeste 0 -- -- 34
2019-06-24 05:00:00 20 5 Este 20 Sudeste 0 -- -- 33
2019-06-24 04:00:00 21.3 8 Sudeste 21 Sur 0 -- -- 34
2019-06-24 03:00:00 21.5 6 Sudeste 21 Sudeste 0 -- -- 34
2019-06-24 02:00:00 22.1 8 Sudeste 26 Sudeste 0 -- -- 34
2019-06-24 01:00:00 22.4 10 Este 24 Este 0 -- -- 33
2019-06-24 00:00:00 22.9 7 Este 21 Este 0 -- -- 34
2019-06-23 23:00:00 23.7 5 Este 14 Este 0 -- -- 32
2019-06-23 22:00:00 24.2 5 Sudeste 11 Este 0 -- -- 32
2019-06-23 21:00:00 26 2 Sudeste 14 Sudeste 0 -- -- 31
2019-06-23 20:00:00 27.9 4 Sudeste 15 Sudeste 0 -- -- 28
2019-06-23 19:00:00 29.4 7 Sudeste 17 Sudeste 0 -- -- 25
2019-06-23 18:00:00 29.1 3 Sudoeste 12 Sudoeste 0 -- -- 25
2019-06-23 17:00:00 29.9 0 Calma 19 Este 0 -- -- 26
2019-06-23 16:00:00 30.1 4 Sur 19 Sur 0 -- -- 25
2019-06-23 15:00:00 28.7 10 Sur 23 Sur 0 -- -- 26
2019-06-23 14:00:00 29.4 6 Sudeste 25 Este 0 -- -- 28
2019-06-23 13:00:00 28 8 Sudeste 26 Sur 0 -- -- 30
2019-06-23 12:00:00 27 8 Sudeste 24 Sudeste 0 -- -- 31
2019-06-23 11:00:00 25.8 10 Sudeste 22 Sudeste 0 -- -- 33
2019-06-23 10:00:00 23 6 Sudeste 17 Sudeste 0 -- -- 40
2019-06-23 09:00:00 17.3 3 Nordeste 11 Nordeste 0 -- -- 51
2019-06-23 08:00:00 14.4 6 Nordeste 21 Nordeste 0 -- -- 55
2019-06-23 07:00:00 13.5 8 Nordeste 19 Nordeste 0 -- -- 56
2019-06-23 06:00:00 13.9 7 Nordeste 15 Norte 0 -- -- 54
2019-06-23 05:00:00 14.6 3 Nordeste 15 Nordeste 0 -- -- 51
2019-06-23 04:00:00 15 5 Nordeste 18 Nordeste 0 -- -- 49
2019-06-23 03:00:00 14.7 9 Nordeste 21 Norte 0 -- -- 51
2019-06-23 02:00:00 14.9 5 Nordeste 19 Nordeste 0 -- -- 49
2019-06-23 01:00:00 15.8 9 Nordeste 18 Nordeste 0 -- -- 45
2019-06-23 00:00:00 16.3 6 Nordeste 23 Nordeste 0 -- -- 44
2019-06-22 23:00:00 17.4 5 Nordeste 24 Nordeste 0 -- -- 42
2019-06-22 22:00:00 19.2 10 Nordeste 27 Norte 0 -- -- 36
2019-06-22 21:00:00 22.2 2 Nordeste 11 Sudeste 0 -- -- 31
2019-06-22 20:00:00 25.5 4 Este 9 Sudeste 0 -- -- 25
2019-06-22 19:00:00 25.5 4 Norte 14 Noroeste 0 -- -- 26
2019-06-22 18:00:00 27.1 6 Sudoeste 16 Sudoeste 0 -- -- 24
2019-06-22 17:00:00 27.4 0 Calma 16 Noroeste 0 -- -- 27
2019-06-22 16:00:00 26.6 5 Nordeste 14 Noroeste 0 -- -- 28
2019-06-22 15:00:00 25.8 5 Sudoeste 13 Oeste 0 -- -- 28
2019-06-22 14:00:00 25.1 0 Calma 14 Noroeste 0 -- -- 31
2019-06-22 13:00:00 23.8 2 Oeste 14 Norte 0 -- -- 33
2019-06-22 12:00:00 22.1 6 Noroeste 15 Noroeste 0 -- -- 35
2019-06-22 11:00:00 19.6 3 Sur 12 Sur 0 -- -- 40
2019-06-22 10:00:00 15.9 5 Sudeste 12 Sudeste 0 -- -- 59
2019-06-22 09:00:00 12.6 6 Sudeste 12 Sudeste 0 -- -- 72
2019-06-22 08:00:00 8.9 3 Nordeste 13 Nordeste 0 -- -- 87
2019-06-22 07:00:00 8 7 Nordeste 17 Este 0 -- -- 87
2019-06-22 06:00:00 7.9 6 Nordeste 17 Nordeste 0 -- -- 87
2019-06-22 05:00:00 8.2 4 Nordeste 14 Nordeste 0 -- -- 87
2019-06-22 04:00:00 9 3 Este 16 Nordeste 0 -- -- 86
2019-06-22 03:00:00 9 3 Nordeste 10 Nordeste 0 -- -- 85
2019-06-22 02:00:00 9.5 0 Calma 7 Nordeste 0 -- -- 81
2019-06-22 01:00:00 10.3 0 Calma 10 Nordeste 0 -- -- 79
2019-06-22 00:00:00 11.9 0 Calma 9 Noroeste 0 -- -- 70
2019-06-21 23:00:00 12.9 4 Noroeste 11 Noroeste 0 -- -- 64
2019-06-21 22:00:00 14.5 0 Calma 15 Norte 0 -- -- 54
2019-06-21 21:00:00 17 6 Norte 17 Nordeste 0 -- -- 49
2019-06-21 20:00:00 19.8 6 Noroeste 23 Noroeste 0 -- -- 43
2019-06-21 19:00:00 21.2 10 Noroeste 24 Noroeste 0 -- -- 42
2019-06-21 18:00:00 22 7 Noroeste 24 Noroeste 0 -- -- 43
2019-06-21 17:00:00 21.7 7 Oeste 26 Noroeste 0 -- -- 44
2019-06-21 16:00:00 21.2 8 Noroeste 30 Noroeste 0 -- -- 48
2019-06-21 15:00:00 19.7 9 Noroeste 26 Noroeste 0 -- -- 52
2019-06-21 14:00:00 18.4 9 Noroeste 23 Noroeste 0 -- -- 62
2019-06-21 13:00:00 16.7 8 Noroeste 20 Noroeste 0 -- -- 73
2019-06-21 12:00:00 16.6 3 Noroeste 17 Noroeste 0 -- -- 87
2019-06-21 11:00:00 15.8 5 Noroeste 18 Noroeste 0 -- -- 88
2019-06-21 10:00:00 14.9 4 Noroeste 10 Oeste 0 -- -- 88
2019-06-21 09:00:00 13.7 0 Calma 9 Noroeste 2.1 -- -- 88
2019-06-21 08:00:00 13.2 0 Calma 7 Nordeste 0 -- -- 88
2019-06-21 07:00:00 12.9 2 Noroeste 10 Sudoeste 0.2 -- -- 88
2019-06-21 06:00:00 13 3 Sudoeste 19 Sudoeste 1.5 -- -- 88
2019-06-21 05:00:00 13 3 Noroeste 21 Noroeste 5.5 -- -- 88
2019-06-21 04:00:00 13.1 0 Calma 17 Nordeste 0.9 -- -- 88
2019-06-21 03:00:00 13.4 3 Norte 22 Noroeste 4.2 -- -- 88
2019-06-21 02:00:00 13.5 3 Este 22 Noroeste 6.9 -- -- 88
2019-06-21 01:00:00 13.8 5 Sudeste 18 Nordeste 1.1 -- -- 88
2019-06-21 00:00:00 13.3 7 Norte 30 Norte 8.2 -- -- 88
2019-06-20 23:00:00 16.2 4 Sudeste 17 Noroeste 0 -- -- 65
2019-06-20 22:00:00 16.6 6 Noroeste 21 Nordeste 0 -- -- 61
2019-06-20 21:00:00 18.6 6 Noroeste 18 Norte 0 -- -- 52
2019-06-20 20:00:00 20.5 8 Noroeste 25 Norte 0 -- -- 48
2019-06-20 19:00:00 21.1 6 Nordeste 31 Norte 0 -- -- 44
2019-06-20 18:00:00 22.7 9 Noroeste 23 Noroeste 0 -- -- 40
2019-06-20 17:00:00 24.4 8 Noroeste 21 Noroeste 0 -- -- 37
2019-06-20 16:00:00 25.6 11 Sudoeste 25 Sudoeste 0 -- -- 30
2019-06-20 15:00:00 24.8 2 Noroeste 11 Noroeste 0 -- -- 37
2019-06-20 14:00:00 23.3 2 Oeste 15 Oeste 0 -- -- 42
2019-06-20 13:00:00 23.3 5 Noroeste 15 Noroeste 0 -- -- 42
2019-06-20 12:00:00 19.4 0 Calma -- -- 0 -- -- 54
2019-06-20 11:00:00 17.3 2 Noroeste 8 Oeste 0 -- -- 61
2019-06-20 10:00:00 15.9 0 Calma 9 Oeste 0 -- -- 65
2019-06-20 09:00:00 14.2 0 Calma 9 Noroeste 0 -- -- 77
2019-06-20 08:00:00 12 0 Calma 8 Nordeste 0 -- -- 87
2019-06-20 07:00:00 10.7 4 Norte 12 Norte 0 -- -- 87
2019-06-20 06:00:00 11.1 5 Norte 11 Nordeste 0 -- -- 86
2019-06-20 05:00:00 11.9 4 Norte 21 Nordeste 0 -- -- 85
2019-06-20 04:00:00 12.9 15 Nordeste 26 Norte 0 -- -- 83
2019-06-20 03:00:00 14.1 14 Nordeste 27 Nordeste 0 -- -- 78
2019-06-20 02:00:00 15.1 11 Nordeste 25 Nordeste 0 -- -- 67
2019-06-20 01:00:00 16.1 14 Nordeste 30 Norte 0 -- -- 58
2019-06-20 00:00:00 18.6 16 Norte 25 Nordeste 0 -- -- 46
2019-06-19 23:00:00 18.9 12 Nordeste 26 Nordeste 0 -- -- 48
2019-06-19 22:00:00 19.6 15 Nordeste 21 Nordeste 0 -- -- 42
2019-06-19 21:00:00 22 2 Nordeste 8 Nordeste 0 -- -- 36
2019-06-19 20:00:00 24 3 Noroeste 13 Norte 0 -- -- 32
2019-06-19 19:00:00 25.3 4 Norte 18 Noroeste 0 -- -- 32
2019-06-19 18:00:00 26.3 6 Oeste 22 Noroeste 0 -- -- 31
2019-06-19 17:00:00 26.3 7 Oeste 21 Oeste 0 -- -- 31
2019-06-19 16:00:00 26.1 6 Sudoeste 23 Sur 0 -- -- 31
2019-06-19 15:00:00 26.1 9 Sudoeste 22 Sudoeste 0 -- -- 29
2019-06-19 14:00:00 25.7 4 Oeste 23 Oeste 0 -- -- 31
2019-06-19 13:00:00 26 3 Oeste 20 Sudoeste 0 -- -- 30
2019-06-19 12:00:00 25.1 4 Sur 11 Sur 0 -- -- 31
2019-06-19 11:00:00 22.7 3 Oeste 10 Noroeste 0 -- -- 34
2019-06-19 10:00:00 19.6 2 Noroeste 7 Noroeste 0 -- -- 40
2019-06-19 09:00:00 15.8 0 Calma 13 Nordeste 0 -- -- 47
2019-06-19 08:00:00 12.2 3 Nordeste 16 Nordeste 0 -- -- 51
2019-06-19 07:00:00 12 6 Nordeste 19 Nordeste 0 -- -- 51
2019-06-19 06:00:00 12.1 9 Nordeste 21 Nordeste 0 -- -- 47
2019-06-19 05:00:00 13.1 10 Nordeste 19 Nordeste 0 -- -- 44
2019-06-19 04:00:00 14.8 8 Nordeste 17 Este 0 -- -- 40
2019-06-19 03:00:00 16.2 2 Este 8 Este 0 -- -- 35
2019-06-19 02:00:00 18.3 4 Este 15 Sudeste 0 -- -- 31
2019-06-19 01:00:00 20 8 Este 18 Este 0 -- -- 29
2019-06-19 00:00:00 21 4 Sudeste 21 Este 0 -- -- 28
2019-06-18 23:00:00 22.1 6 Sudeste 23 Este 0 -- -- 27
2019-06-18 22:00:00 23.2 7 Sudeste 19 Sudeste 0 -- -- 26
2019-06-18 21:00:00 25.2 5 Sudeste 22 Sur 0 -- -- 26
2019-06-18 20:00:00 26.9 8 Sur 26 Sur 0 -- -- 25
2019-06-18 19:00:00 27.4 10 Sur 24 Sur 0 -- -- 23
2019-06-18 18:00:00 28.8 7 Sudoeste 22 Sudoeste 0 -- -- 23
2019-06-18 17:00:00 29.7 9 Sudoeste 35 Sudoeste 0 -- -- 23
2019-06-18 16:00:00 28.8 10 Sur 29 Sur 0 -- -- 23
2019-06-18 15:00:00 28.2 14 Sur 29 Sur 0 -- -- 25
2019-06-18 14:00:00 26.4 8 Sur 21 Sur 0 -- -- 26
2019-06-18 13:00:00 26.9 10 Sur 33 Sudeste 0 -- -- 27
2019-06-18 12:00:00 26.7 9 Sudeste 23 Sudeste 0 -- -- 27
2019-06-18 11:00:00 25 7 Sur 27 Sudeste 0 -- -- 31
2019-06-18 10:00:00 23.4 8 Sudeste 25 Sudeste 0 -- -- 35
2019-06-18 09:00:00 19.7 7 Sudeste 21 Sudeste 0 -- -- 44
2019-06-18 08:00:00 18.4 5 Sudeste 17 Sur 0 -- -- 44
2019-06-18 07:00:00 16.9 4 Sudeste 12 Sudeste 0 -- -- 47
2019-06-18 06:00:00 16.3 3 Este 15 Sur 0 -- -- 48
2019-06-18 05:00:00 17.2 5 Sudeste 19 Sudeste 0.4 -- -- 49
2019-06-18 04:00:00 18 3 Este 9 Este 0 -- -- 42
2019-06-18 03:00:00 17.4 3 Este 13 Sur 0 -- -- 40
2019-06-18 02:00:00 16.1 4 Este 11 Norte 0 -- -- 40
2019-06-18 01:00:00 17 2 Nordeste 14 Nordeste 0 -- -- 34
2019-06-18 00:00:00 18 5 Nordeste 22 Nordeste 0 -- -- 32
2019-06-17 23:00:00 19.2 7 Nordeste 21 Nordeste 0 -- -- 31
2019-06-17 22:00:00 21 4 Nordeste 18 Nordeste 0 -- -- 28
2019-06-17 21:00:00 24.4 3 Este 9 Sudeste 0 -- -- 24
2019-06-17 20:00:00 26.7 3 Sur 14 Sur 0 -- -- 19
2019-06-17 19:00:00 28.4 3 Oeste 21 Sudoeste 0 -- -- 20
2019-06-17 18:00:00 29.2 4 Oeste 20 Noroeste 0 -- -- 20
2019-06-17 17:00:00 29.2 6 Oeste 30 Norte 0 -- -- 20
2019-06-17 16:00:00 28.9 4 Sudoeste 22 Oeste 0 -- -- 22
2019-06-17 15:00:00 28.5 6 Sudoeste 21 Sudoeste 0 -- -- 25
2019-06-17 14:00:00 28.1 9 Sudoeste 21 Sudoeste 0 -- -- 25
2019-06-17 13:00:00 27.2 2 Sudoeste 18 Norte 0 -- -- 27
2019-06-17 12:00:00 25.7 2 Noroeste 9 Sudoeste 0 -- -- 31
2019-06-17 11:00:00 23 0 Calma 8 Oeste 0 -- -- 36
2019-06-17 10:00:00 20.5 0 Calma 8 Sudeste 0 -- -- 42
2019-06-17 09:00:00 16.1 4 Nordeste 15 Nordeste 0 -- -- 47
2019-06-17 08:00:00 12.8 6 Nordeste 19 Nordeste 0 -- -- 52
2019-06-17 07:00:00 10.9 10 Nordeste 23 Nordeste 0 -- -- 55
2019-06-17 06:00:00 12 8 Nordeste 24 Nordeste 0 -- -- 51
2019-06-17 05:00:00 11.5 10 Nordeste 23 Nordeste 0 -- -- 53
2019-06-17 04:00:00 12.8 5 Nordeste 27 Nordeste 0 -- -- 51
2019-06-17 03:00:00 13 12 Nordeste 23 Nordeste 0 -- -- 52
2019-06-17 02:00:00 13.7 5 Nordeste 19 Este 0 -- -- 51
2019-06-17 01:00:00 14.4 8 Nordeste 23 Nordeste 0 -- -- 51
2019-06-17 00:00:00 15.5 4 Nordeste 24 Nordeste 0 -- -- 49
2019-06-16 23:00:00 16.7 18 Nordeste 28 Nordeste 0 -- -- 46
2019-06-16 22:00:00 18 13 Nordeste 21 Nordeste 0 -- -- 37
2019-06-16 21:00:00 21.7 2 Nordeste 7 Noroeste 0 -- -- 28
2019-06-16 20:00:00 23.7 5 Noroeste 13 Noroeste 0 -- -- 25
2019-06-16 19:00:00 25.4 5 Norte 12 Noroeste 0 -- -- 25
2019-06-16 18:00:00 26.9 4 Noroeste 19 Noroeste 0 -- -- 25
2019-06-16 17:00:00 26 6 Norte 18 Sudeste 0 -- -- 25
2019-06-16 16:00:00 26.2 4 Este 18 Sudeste 0 -- -- 25
2019-06-16 15:00:00 25.4 3 Oeste 15 Noroeste 0 -- -- 26
2019-06-16 14:00:00 24.1 5 Norte 17 Noroeste 0 -- -- 28
2019-06-16 13:00:00 23.2 5 Oeste 18 Sudoeste 0 -- -- 29
2019-06-16 12:00:00 21.2 4 Norte 14 Norte 0 -- -- 32
2019-06-16 11:00:00 19.4 0 Calma 8 Sur 0 -- -- 36
2019-06-16 10:00:00 15.8 4 Sur 12 Sudeste 0 -- -- 47
2019-06-16 09:00:00 12.3 4 Sudeste 15 Nordeste 0 -- -- 59
2019-06-16 08:00:00 7.2 7 Nordeste 19 Nordeste 0 -- -- 76
2019-06-16 07:00:00 6.5 9 Nordeste 23 Norte 0 -- -- 77
2019-06-16 06:00:00 6.8 11 Nordeste 22 Nordeste 0 -- -- 78
2019-06-16 05:00:00 7.1 6 Nordeste 17 Nordeste 0 -- -- 78
2019-06-16 04:00:00 7 5 Nordeste 19 Nordeste 0 -- -- 78
2019-06-16 03:00:00 7.9 8 Nordeste 17 Este 0 -- -- 76
2019-06-16 02:00:00 8.2 3 Este 21 Norte 0 -- -- 76
2019-06-16 01:00:00 9.3 4 Nordeste 15 Nordeste 0 -- -- 70
2019-06-16 00:00:00 10.3 9 Norte 15 Norte 0 -- -- 61
2019-06-15 23:00:00 12.1 3 Noroeste 33 Norte 0 -- -- 51
2019-06-15 22:00:00 13.4 19 Nordeste 31 Norte 0 -- -- 47
2019-06-15 21:00:00 15.7 9 Norte 24 Nordeste 0 -- -- 40
2019-06-15 20:00:00 19.1 9 Noroeste 27 Noroeste 0 -- -- 33
2019-06-15 19:00:00 20.7 12 Noroeste 28 Noroeste 0 -- -- 31
2019-06-15 18:00:00 21.6 11 Noroeste 32 Noroeste 0 -- -- 30
2019-06-15 17:00:00 22.3 9 Noroeste 28 Noroeste 0 -- -- 29
2019-06-15 16:00:00 22.1 10 Noroeste 27 Noroeste 0 -- -- 30
2019-06-15 15:00:00 21.7 8 Oeste 31 Oeste 0 -- -- 31
2019-06-15 14:00:00 21 9 Noroeste 28 Noroeste 0 -- -- 33
2019-06-15 13:00:00 20.7 6 Noroeste 25 Noroeste 0 -- -- 40
2019-06-15 12:00:00 18.3 6 Noroeste 18 Noroeste 0 -- -- 49
2019-06-15 11:00:00 15.6 4 Noroeste 12 Noroeste 0 -- -- 61
2019-06-15 10:00:00 13.4 2 Sudoeste 12 Oeste 0 -- -- 70
2019-06-15 09:00:00 11.3 5 Noroeste 12 Noroeste 0 -- -- 83
2019-06-15 08:00:00 10.3 5 Noroeste 14 Norte 0 -- -- 87
2019-06-15 07:00:00 9.7 2 Noroeste 12 Oeste 0 -- -- 87
2019-06-15 06:00:00 9.9 3 Oeste 6 Noroeste 0 -- -- 86
2019-06-15 05:00:00 10.1 3 Oeste 9 Noroeste 0 -- -- 86
2019-06-15 04:00:00 10.5 2 Noroeste 15 Noroeste 0 -- -- 85
2019-06-15 03:00:00 10.9 7 Noroeste 16 Noroeste 0 -- -- 81
2019-06-15 02:00:00 11.9 5 Noroeste 14 Noroeste 0 -- -- 77
2019-06-15 01:00:00 12.4 5 Norte 17 Nordeste 0 -- -- 68
2019-06-15 00:00:00 14.4 4 Nordeste 21 Nordeste 0 -- -- 57
2019-06-14 23:00:00 15.5 6 Nordeste 24 Nordeste 0 -- -- 53
2019-06-14 22:00:00 16.4 12 Nordeste 24 Norte 0 -- -- 49
2019-06-14 21:00:00 19.4 4 Nordeste 8 Nordeste 0 -- -- 43
2019-06-14 20:00:00 21.3 2 Este 16 Sudeste 0 -- -- 38
2019-06-14 19:00:00 22.2 5 Sudeste 14 Sudeste 0 -- -- 33
2019-06-14 18:00:00 22.7 3 Este 15 Sudeste 0 -- -- 37
2019-06-14 17:00:00 20.4 5 Sudeste 14 Sur 0 -- -- 44
2019-06-14 16:00:00 18.6 5 Sudeste 13 Sudeste 0 -- -- 59
2019-06-14 15:00:00 14.5 2 Sur 30 Nordeste 0.7 -- -- 83
2019-06-14 14:00:00 12.9 17 Nordeste 29 Nordeste 1.9 -- -- 85
2019-06-14 13:00:00 15.7 9 Noroeste 21 Noroeste 0.2 -- -- 61
2019-06-14 12:00:00 19.4 2 Sudeste 10 Este 0 -- -- 42
2019-06-14 11:00:00 14.4 3 Sudeste 14 Sur 0 -- -- 62
2019-06-14 10:00:00 13.3 0 Calma 10 Sudoeste 0 -- -- 65
2019-06-14 09:00:00 12.9 4 Sudoeste 10 Sudoeste 0 -- -- 67
2019-06-14 08:00:00 12.1 3 Oeste 9 Noroeste 0 -- -- 67
2019-06-14 07:00:00 11.7 5 Noroeste 14 Oeste 0 -- -- 65
2019-06-14 06:00:00 13.2 5 Oeste 16 Oeste 0 -- -- 46
2019-06-14 05:00:00 15 0 Calma 11 Este 0 -- -- 40
2019-06-14 04:00:00 15.3 4 Este 14 Sur 0 -- -- 40
2019-06-14 03:00:00 15.3 5 Sudeste 23 Sudeste 0 -- -- 40
2019-06-14 02:00:00 15.7 8 Sudeste 20 Este 0 -- -- 39
2019-06-14 01:00:00 16.3 7 Sudeste 22 Sudeste 0 -- -- 38
2019-06-14 00:00:00 16.9 7 Sudeste 19 Sudeste 0 -- -- 37
2019-06-13 23:00:00 17.5 7 Sudeste 24 Sudeste 0 -- -- 37
2019-06-13 22:00:00 18.9 8 Sudeste 37 Este 0 -- -- 35
2019-06-13 21:00:00 20.5 10 Sudeste 28 Sudeste 0 -- -- 32
2019-06-13 20:00:00 21.6 8 Sudeste 27 Sur 0 -- -- 30
2019-06-13 19:00:00 21.8 12 Sudeste 31 Sudeste 0 -- -- 30
2019-06-13 18:00:00 22 13 Sudeste 32 Sudeste 0 -- -- 31
2019-06-13 17:00:00 21.9 10 Sudeste 27 Este 0 -- -- 31
2019-06-13 16:00:00 21.5 11 Sudeste 30 Sudeste 0 -- -- 32
2019-06-13 15:00:00 22.2 11 Este 51 Sudeste 0 -- -- 32
2019-06-13 14:00:00 20.3 12 Sudeste 39 Sudeste 0 -- -- 34
2019-06-13 13:00:00 18.7 12 Sudeste 30 Sudeste 0 -- -- 37
2019-06-13 12:00:00 16 11 Sudeste 30 Sudeste 0 -- -- 38
2019-06-13 11:00:00 14.8 13 Sudeste 32 Sudeste 0.5 -- -- 39
2019-06-13 10:00:00 13.9 10 Sudeste 30 Sudeste 0 -- -- 37
2019-06-13 09:00:00 13.7 12 Sudeste 28 Sudeste 0 -- -- 37
2019-06-13 08:00:00 11.6 8 Este 22 Este 0 -- -- 43
2019-06-13 07:00:00 10.2 6 Este 21 Sur 0 -- -- 44
2019-06-13 06:00:00 10.7 9 Sudeste 22 Sudeste 0 -- -- 43
2019-06-13 05:00:00 11 9 Sudeste 23 Sudeste 0 -- -- 42
2019-06-13 04:00:00 10.6 5 Sudeste 19 Sudeste 0 -- -- 43
2019-06-13 03:00:00 10.7 9 Este 28 Este 0 -- -- 42
2019-06-13 02:00:00 10 8 Este 17 Sudeste 0 -- -- 43
2019-06-13 01:00:00 10.2 4 Sudeste 11 Sudeste 0 -- -- 42
2019-06-13 00:00:00 11.5 4 Sudeste 18 Este 0 -- -- 40
2019-06-12 23:00:00 11.2 8 Nordeste 19 Nordeste 0 -- -- 40
2019-06-12 22:00:00 12.9 2 Este 9 Este 0 -- -- 32
2019-06-12 21:00:00 15.8 3 Sudeste 10 Sudeste 0 -- -- 27
2019-06-12 20:00:00 17.6 2 Norte 15 Nordeste 0 -- -- 25
2019-06-12 19:00:00 19.5 6 Nordeste 15 Nordeste 0 -- -- 25
2019-06-12 18:00:00 18.9 3 Sudoeste 17 Sudoeste 0 -- -- 23
2019-06-12 17:00:00 18.3 4 Sudoeste 16 Noroeste 0 -- -- 23
2019-06-12 16:00:00 18.2 6 Oeste 19 Sudoeste 0 -- -- 26
2019-06-12 15:00:00 16.5 5 Sudoeste 26 Noroeste 0 -- -- 27
2019-06-12 14:00:00 16.6 5 Sudoeste 18 Nordeste 0 -- -- 28
2019-06-12 13:00:00 15.1 6 Norte 19 Norte 0 -- -- 31
2019-06-12 12:00:00 13.3 4 Norte 19 Norte 0 -- -- 37
2019-06-12 11:00:00 12.4 3 Sur 13 Sur 0 -- -- 38
2019-06-12 10:00:00 9.8 3 Sur 12 Sudeste 0 -- -- 51
2019-06-12 09:00:00 6.1 5 Sudeste 15 Nordeste 0 -- -- 72
2019-06-12 08:00:00 1.5 3 Nordeste 14 Nordeste 0 -- -- 85
2019-06-12 07:00:00 0.9 10 Nordeste 22 Nordeste 0 -- -- 85
2019-06-12 06:00:00 1.3 14 Nordeste 24 Nordeste 0 -- -- 85
2019-06-12 05:00:00 1.7 5 Nordeste 15 Nordeste 0 -- -- 84
2019-06-12 04:00:00 2.1 6 Nordeste 20 Nordeste 0 -- -- 81
2019-06-12 03:00:00 2.7 9 Nordeste 18 Nordeste 0 -- -- 81
2019-06-12 02:00:00 3.1 9 Nordeste 16 Nordeste 0 -- -- 79
2019-06-12 01:00:00 4.4 2 Nordeste 12 Noroeste 0 -- -- 73
2019-06-12 00:00:00 5.4 3 Oeste 14 Noroeste 0 -- -- 68
2019-06-11 23:00:00 6.6 5 Sur 19 Noroeste 0 -- -- 64
2019-06-11 22:00:00 7.4 13 Noroeste 28 Noroeste 0 -- -- 53
2019-06-11 21:00:00 9.9 11 Noroeste 33 Noroeste 0 -- -- 44
2019-06-11 20:00:00 12.2 17 Noroeste 37 Noroeste 0 -- -- 40
2019-06-11 19:00:00 13.5 18 Noroeste 47 Noroeste 0 -- -- 38
2019-06-11 18:00:00 15.1 13 Noroeste 41 Noroeste 0 -- -- 34
2019-06-11 17:00:00 15.7 20 Noroeste 42 Noroeste 0 -- -- 35
2019-06-11 16:00:00 16.3 16 Noroeste 39 Noroeste 0 -- -- 35
2019-06-11 15:00:00 15.6 14 Noroeste 40 Noroeste 0 -- -- 39
2019-06-11 14:00:00 14 12 Noroeste 33 Noroeste 0 -- -- 46
2019-06-11 13:00:00 12.6 9 Oeste 33 Noroeste 0 -- -- 52
2019-06-11 12:00:00 10 8 Sudoeste 20 Noroeste 0 -- -- 64
2019-06-11 11:00:00 9.4 4 Oeste 18 Sudoeste 0 -- -- 81
2019-06-11 10:00:00 7.5 6 Noroeste 18 Oeste 0.1 -- -- 89
2019-06-11 09:00:00 6.5 6 Noroeste 19 Noroeste 0 -- -- 89
2019-06-11 08:00:00 6.3 6 Noroeste 14 Noroeste 0 -- -- 89
2019-06-11 07:00:00 5.8 4 Oeste 13 Noroeste 0.3 -- -- 88
2019-06-11 06:00:00 6 3 Oeste 11 Sudoeste 0.3 -- -- 87
2019-06-11 05:00:00 6.4 4 Oeste 15 Noroeste 0.5 -- -- 83
2019-06-11 04:00:00 7.2 4 Noroeste 10 Oeste 0.5 -- -- 75
2019-06-11 03:00:00 8.1 4 Oeste 9 Oeste 0 -- -- 65
2019-06-11 02:00:00 8.8 5 Sudoeste 15 Noroeste 0 -- -- 66
2019-06-11 01:00:00 9 2 Noroeste 13 Noroeste 0 -- -- 68
2019-06-11 00:00:00 8.9 4 Oeste 15 Noroeste 0 -- -- 67
2019-06-10 23:00:00 9 6 Noroeste 19 Noroeste 0 -- -- 65
2019-06-10 22:00:00 9.5 9 Noroeste 22 Noroeste 0 -- -- 61
2019-06-10 21:00:00 10.6 9 Noroeste 22 Noroeste 0 -- -- 55
2019-06-10 20:00:00 12.2 8 Noroeste 31 Noroeste 0 -- -- 49
2019-06-10 19:00:00 14 11 Noroeste 39 Noroeste 0 -- -- 42
2019-06-10 18:00:00 17.2 11 Noroeste 40 Noroeste 0 -- -- 38
2019-06-10 17:00:00 18.2 12 Oeste 38 Noroeste 0 -- -- 37
2019-06-10 16:00:00 18.8 15 Noroeste 34 Noroeste 0 -- -- 37
2019-06-10 15:00:00 18.9 12 Noroeste 33 Noroeste 0 -- -- 38
2019-06-10 14:00:00 19.3 9 Noroeste 30 Noroeste 0 -- -- 40
2019-06-10 13:00:00 17.7 8 Noroeste 26 Noroeste 0 -- -- 42
2019-06-10 12:00:00 17.2 5 Noroeste 24 Noroeste 0 -- -- 47
2019-06-10 11:00:00 15.5 8 Oeste 21 Noroeste 0 -- -- 55
2019-06-10 10:00:00 12.5 8 Noroeste 20 Noroeste 0 -- -- 67
2019-06-10 09:00:00 11.3 3 Noroeste 13 Noroeste 0 -- -- 72
2019-06-10 08:00:00 8.6 0 Calma 14 Oeste 0 -- -- 83
2019-06-10 07:00:00 8.1 6 Oeste 14 Noroeste 0 -- -- 83
2019-06-10 06:00:00 8.4 6 Noroeste 15 Noroeste 0 -- -- 83
2019-06-10 05:00:00 8.8 5 Oeste 16 Noroeste 0 -- -- 83
2019-06-10 04:00:00 9.2 8 Noroeste 15 Oeste 0 -- -- 83
2019-06-10 03:00:00 9.9 3 Noroeste 23 Oeste 0 -- -- 81
2019-06-10 02:00:00 10.6 5 Noroeste 21 Oeste 0 -- -- 78
2019-06-10 01:00:00 11.5 10 Noroeste 24 Oeste 0 -- -- 75
2019-06-10 00:00:00 11.7 11 Noroeste 21 Noroeste 0 -- -- 73
2019-06-09 23:00:00 12.5 5 Oeste 23 Noroeste 0 -- -- 70
2019-06-09 22:00:00 14.7 8 Noroeste 25 Noroeste 0 -- -- 57
2019-06-09 21:00:00 18.2 7 Norte 19 Norte 0 -- -- 44
2019-06-09 20:00:00 21.1 13 Norte 23 Norte 0 -- -- 35
2019-06-09 19:00:00 24.2 8 Noroeste 18 Noroeste 0 -- -- 29
2019-06-09 18:00:00 23.8 7 Noroeste 23 Noroeste 0 -- -- 31
2019-06-09 17:00:00 23.4 3 Norte 18 Norte 0 -- -- 32
2019-06-09 16:00:00 25 0 Calma 11 Sudoeste 0 -- -- 34
2019-06-09 15:00:00 22.8 3 Noroeste 16 Sudoeste 0 -- -- 34
2019-06-09 14:00:00 24 3 Sur 18 Nordeste 0 -- -- 32
2019-06-09 13:00:00 22.5 0 Calma 11 Sudoeste 0 -- -- 37
2019-06-09 12:00:00 20 0 Calma 9 Sudeste 0 -- -- 40
2019-06-09 11:00:00 18.1 0 Calma 10 Nordeste 0 -- -- 51
2019-06-09 10:00:00 17.2 2 Nordeste 18 Este 0 -- -- 48
2019-06-09 09:00:00 16.6 5 Sudoeste 17 Sudeste 0 -- -- 42
2019-06-09 08:00:00 15.6 5 Sudeste 14 Sudeste 0 -- -- 44
2019-06-09 07:00:00 14.4 2 Nordeste 8 Nordeste 0 -- -- 46
2019-06-09 06:00:00 14.8 5 Sudeste 33 Sudeste 0 -- -- 46
2019-06-09 05:00:00 14.9 8 Sudeste 22 Sudeste 0 -- -- 46
2019-06-09 04:00:00 14.9 6 Sudeste 24 Sudeste 0 -- -- 47
2019-06-09 03:00:00 14.6 8 Sudeste 22 Sudeste 0 -- -- 47
2019-06-09 02:00:00 14.6 8 Sudeste 23 Este 0 -- -- 47
2019-06-09 01:00:00 14.8 7 Este 34 Sudeste 0 -- -- 46
2019-06-09 00:00:00 16.2 10 Sudeste 27 Sudeste 0 -- -- 42
2019-06-08 23:00:00 16.7 8 Este 21 Sudeste 0 -- -- 40
2019-06-08 22:00:00 18 6 Sudeste 21 Sur 0 -- -- 37
2019-06-08 21:00:00 18.9 5 Sudeste 14 Sudeste 0 -- -- 34
2019-06-08 20:00:00 20 6 Sur 17 Sur 0 -- -- 31
2019-06-08 19:00:00 20.9 6 Sur 22 Sur 0 -- -- 29
2019-06-08 18:00:00 22 6 Sur 18 Sur 0 -- -- 28
2019-06-08 17:00:00 21.6 5 Sudeste 22 Sur 0 -- -- 27
2019-06-08 16:00:00 20.9 7 Sudeste 21 Sudeste 0 -- -- 26
2019-06-08 15:00:00 22.2 6 Sudeste 25 Este 0 -- -- 25
2019-06-08 14:00:00 22.2 6 Este 26 Sudeste 0 -- -- 28
2019-06-08 13:00:00 20.5 6 Sudeste 23 Sur 0 -- -- 28
2019-06-08 12:00:00 19.5 4 Sudeste 20 Sudeste 0 -- -- 30
2019-06-08 11:00:00 18.1 6 Sudeste 17 Este 0 -- -- 29
2019-06-08 10:00:00 13.4 5 Sudeste 14 Sudeste 0 -- -- 43
2019-06-08 09:00:00 9.8 3 Sudeste 11 Sur 0 -- -- 55
2019-06-08 08:00:00 5.1 3 Este 18 Norte 0 -- -- 69
2019-06-08 07:00:00 3.8 6 Nordeste 17 Nordeste 0 -- -- 72
2019-06-08 06:00:00 4.2 6 Nordeste 19 Nordeste 0 -- -- 70
2019-06-08 05:00:00 4.7 7 Nordeste 21 Nordeste 0 -- -- 68
2019-06-08 04:00:00 4.4 6 Nordeste 13 Nordeste 0 -- -- 72
2019-06-08 03:00:00 5.6 3 Este 18 Nordeste 0 -- -- 66
2019-06-08 02:00:00 6.5 7 Nordeste 30 Nordeste 0 -- -- 64
2019-06-08 01:00:00 6.9 14 Nordeste 23 Nordeste 0 -- -- 64
2019-06-08 00:00:00 8.2 8 Nordeste 22 Nordeste 0 -- -- 57
2019-06-07 23:00:00 9.8 14 Nordeste 30 Nordeste 0 -- -- 51
2019-06-07 22:00:00 10.9 18 Nordeste 26 Nordeste 0 -- -- 44
2019-06-07 21:00:00 13.9 4 Nordeste 19 Noroeste 0 -- -- 32
2019-06-07 20:00:00 16.9 5 Noroeste 23 Noroeste 0 -- -- 27
2019-06-07 19:00:00 18.1 12 Noroeste 25 Noroeste 0 -- -- 26
2019-06-07 18:00:00 18.3 5 Noroeste 26 Noroeste 0 -- -- 27
2019-06-07 17:00:00 18.4 6 Noroeste 35 Oeste 0 -- -- 28
2019-06-07 16:00:00 17.9 9 Noroeste 30 Noroeste 0 -- -- 29
2019-06-07 15:00:00 17.8 8 Oeste 29 Sudoeste 0 -- -- 31
2019-06-07 14:00:00 16.4 12 Noroeste 26 Noroeste 0 -- -- 34
2019-06-07 13:00:00 15.6 6 Sudoeste 17 Sudoeste 0 -- -- 37
2019-06-07 12:00:00 14.4 4 Noroeste 15 Noroeste 0 -- -- 49
2019-06-07 11:00:00 12.8 5 Noroeste 18 Noroeste 0 -- -- 70
2019-06-07 10:00:00 10.5 0 Calma 10 Sudoeste 0.2 -- -- 81
2019-06-07 09:00:00 8.7 9 Sudoeste 17 Sudoeste 0.2 -- -- 83
2019-06-07 08:00:00 9.7 6 Oeste 29 Sur 2.1 -- -- 82
2019-06-07 07:00:00 12.3 8 Sudeste 22 Este 0.3 -- -- 67
2019-06-07 06:00:00 13.1 10 Sur 34 Sudeste 0.2 -- -- 57
2019-06-07 05:00:00 13.7 10 Sudeste 34 Sur 0 -- -- 49
2019-06-07 04:00:00 13.1 8 Sudeste 29 Sudeste 0 -- -- 47
2019-06-07 03:00:00 13.9 8 Sudeste 22 Sudeste 0 -- -- 43
2019-06-07 02:00:00 13.9 9 Sudeste 35 Sudeste 0 -- -- 42
2019-06-07 01:00:00 14.3 14 Sudeste 37 Sudeste 0 -- -- 41
2019-06-07 00:00:00 14.4 14 Sudeste 47 Sudeste 0 -- -- 40
2019-06-06 23:00:00 14.9 19 Sudeste 45 Sudeste 0 -- -- 40
2019-06-06 22:00:00 14.9 14 Sudeste 40 Sudeste 0 -- -- 40
2019-06-06 21:00:00 16.1 16 Sudeste 44 Sudeste 0 -- -- 37
2019-06-06 20:00:00 17.6 17 Sudeste 46 Sur 0 -- -- 34
2019-06-06 19:00:00 18.2 13 Sudeste 50 Sur 0 -- -- 31
2019-06-06 18:00:00 18.6 13 Sur 40 Sur 0 -- -- 27
2019-06-06 17:00:00 19.7 12 Sur 40 Sur 0 -- -- 25
2019-06-06 16:00:00 18.5 13 Sur 34 Este 0 -- -- 25
2019-06-06 15:00:00 18.8 10 Sur 33 Sur 0 -- -- 27
2019-06-06 14:00:00 17 13 Sur 34 Sur 0 -- -- 28
2019-06-06 13:00:00 16.9 15 Sur 50 Sudeste 0 -- -- 31
2019-06-06 12:00:00 16.8 8 Sudeste 25 Sur 0 -- -- 36
2019-06-06 11:00:00 14.7 5 Este 15 Sudeste 0 -- -- 42
2019-06-06 10:00:00 10.7 3 Nordeste 8 Sudeste 0 -- -- 67
2019-06-06 09:00:00 9 4 Este 15 Sudeste 0 -- -- 70
2019-06-06 08:00:00 7.1 3 Este 13 Nordeste 0 -- -- 83
2019-06-06 07:00:00 6 4 Nordeste 18 Nordeste 0 -- -- 85
2019-06-06 06:00:00 5.7 5 Nordeste 12 Nordeste 0 -- -- 85
2019-06-06 05:00:00 5.9 4 Nordeste 10 Este 0 -- -- 85
2019-06-06 04:00:00 6 2 Nordeste 12 Nordeste 0 -- -- 84
2019-06-06 03:00:00 6.1 0 Calma 5 Noroeste 0 -- -- 85
2019-06-06 02:00:00 6.1 0 Calma 8 Norte 0 -- -- 83
2019-06-06 01:00:00 5.9 0 Calma 13 Noroeste 0 -- -- 83
2019-06-06 00:00:00 6.3 6 Noroeste 15 Noroeste 0 -- -- 79
2019-06-05 23:00:00 6.7 6 Noroeste 17 Noroeste 0 -- -- 77
2019-06-05 22:00:00 8.1 9 Noroeste 21 Noroeste 0 -- -- 71
2019-06-05 21:00:00 10.3 8 Noroeste 31 Noroeste 0 -- -- 57
2019-06-05 20:00:00 13 13 Noroeste 38 Noroeste 0 -- -- 46
2019-06-05 19:00:00 13.8 19 Noroeste 44 Noroeste 0 -- -- 44
2019-06-05 18:00:00 15.8 17 Noroeste 45 Noroeste 0 -- -- 43
2019-06-05 17:00:00 15.6 14 Noroeste 44 Noroeste 0 -- -- 46
2019-06-05 16:00:00 14 16 Noroeste 37 Noroeste 0 -- -- 51
2019-06-05 15:00:00 10 11 Noroeste 30 Noroeste 0 -- -- 72
2019-06-05 14:00:00 11.3 5 Oeste 25 Noroeste 0 -- -- 78
2019-06-05 13:00:00 11.5 8 Noroeste 22 Noroeste 0.2 -- -- 89
2019-06-05 12:00:00 8 8 Norte 20 Sur 1.3 -- -- 89
2019-06-05 11:00:00 8.7 6 Noroeste 44 Noroeste 7.4 -- -- 89
2019-06-05 10:00:00 10.7 2 Este 17 Sudoeste 2.9 -- -- 87
2019-06-05 09:00:00 10.5 6 Este 21 Este 0.4 -- -- 88
2019-06-05 08:00:00 9.6 5 Oeste 18 Oeste 0 -- -- 88
2019-06-05 07:00:00 9.7 7 Sudoeste 27 Noroeste 0.1 -- -- 87
2019-06-05 06:00:00 10 6 Sur 14 Sudeste 0 -- -- 87
2019-06-05 05:00:00 10.2 4 Sudoeste 30 Noroeste 0.1 -- -- 87
2019-06-05 04:00:00 11.2 6 Oeste 13 Noroeste 0 -- -- 87
2019-06-05 03:00:00 11.8 0 Calma 14 Noroeste 0 -- -- 87
2019-06-05 02:00:00 12.3 4 Oeste 13 Oeste 0 -- -- 87
2019-06-05 01:00:00 12.8 5 Noroeste 13 Oeste 0.3 -- -- 87
2019-06-05 00:00:00 13.9 0 Calma 18 Noroeste 1.4 -- -- 87
2019-06-04 23:00:00 14.2 6 Noroeste 18 Sur 0 -- -- 83
2019-06-04 22:00:00 15 3 Sur 45 Noroeste 0.8 -- -- 81
2019-06-04 21:00:00 18.7 12 Noroeste 32 Noroeste 0 -- -- 49
2019-06-04 20:00:00 25.3 8 Sur 29 Sur 0 -- -- 28
2019-06-04 19:00:00 26.4 9 Sur 26 Sudoeste 0 -- -- 25
2019-06-04 18:00:00 28.1 8 Sur 27 Sudoeste 0 -- -- 25
2019-06-04 17:00:00 28.9 8 Sudoeste 28 Sur 0 -- -- 25
2019-06-04 16:00:00 28.6 10 Sudoeste 28 Sudoeste 0 -- -- 25
2019-06-04 15:00:00 28.2 14 Sudoeste 32 Sur 0 -- -- 25
2019-06-04 14:00:00 28.2 9 Sudoeste 38 Sur 0 -- -- 27
2019-06-04 13:00:00 27.8 11 Sudoeste 26 Sudoeste 0 -- -- 27
2019-06-04 12:00:00 25.7 8 Sudeste 26 Sur 0 -- -- 30
2019-06-04 11:00:00 23.9 12 Sudeste 28 Sudeste 0 -- -- 33
2019-06-04 10:00:00 21.9 12 Sudeste 25 Sudeste 0 -- -- 37
2019-06-04 09:00:00 19.3 8 Este 19 Este 0 -- -- 42
2019-06-04 08:00:00 16.6 5 Este 19 Este 0 -- -- 44
2019-06-04 07:00:00 15.8 5 Este 15 Sudeste 0 -- -- 46
2019-06-04 06:00:00 16.5 8 Este 19 Sudeste 0 -- -- 44
2019-06-04 05:00:00 17.8 6 Sudeste 15 Sudeste 0 -- -- 42
2019-06-04 04:00:00 18.3 0 Calma 19 Este 0 -- -- 40
2019-06-04 03:00:00 20 11 Sudeste 23 Sudeste 0 -- -- 39
2019-06-04 02:00:00 19.4 3 Este 13 Sudeste 0 -- -- 40
2019-06-04 01:00:00 19.9 3 Este 10 Sudeste 0 -- -- 40
2019-06-04 00:00:00 20.6 2 Este 15 Sudeste 0 -- -- 37
2019-06-03 23:00:00 21.4 7 Sudeste 19 Sudeste 0 -- -- 37
2019-06-03 22:00:00 22.4 6 Este 21 Sudeste 0 -- -- 34
2019-06-03 21:00:00 25 5 Sudeste 14 Sudeste 0 -- -- 30
2019-06-03 20:00:00 26.8 7 Sudoeste 17 Oeste 0 -- -- 28
2019-06-03 19:00:00 27.8 4 Norte 13 Noroeste 0 -- -- 29
2019-06-03 18:00:00 27.7 6 Noroeste 22 Sur 0 -- -- 28
2019-06-03 17:00:00 29 11 Sudoeste 26 Sur 0 -- -- 27
2019-06-03 16:00:00 29.2 5 Oeste 14 Sudoeste 0 -- -- 30
2019-06-03 15:00:00 27.4 4 Sudeste 19 Sudeste 0 -- -- 30
2019-06-03 14:00:00 27.1 4 Sudeste 24 Sudeste 0 -- -- 31
2019-06-03 13:00:00 26.2 9 Sudeste 25 Sur 0 -- -- 31
2019-06-03 12:00:00 24.7 8 Sur 22 Sur 0 -- -- 37
2019-06-03 11:00:00 23.3 6 Este 15 Este 0 -- -- 44
2019-06-03 10:00:00 20.7 6 Sudeste 14 Sudeste 0 -- -- 49
2019-06-03 09:00:00 18.3 2 Este 8 Sudeste 0 -- -- 57
2019-06-03 08:00:00 14.9 2 Nordeste 8 Nordeste 0 -- -- 59
2019-06-03 07:00:00 14.9 4 Norte 17 Nordeste 0 -- -- 56
2019-06-03 06:00:00 15.9 4 Este 16 Este 0 -- -- 53
2019-06-03 05:00:00 15.8 5 Nordeste 15 Nordeste 0 -- -- 55
2019-06-03 04:00:00 15.8 3 Nordeste 11 Sudeste 0 -- -- 55
2019-06-03 03:00:00 16.3 5 Nordeste 21 Nordeste 0 -- -- 54
2019-06-03 02:00:00 17.1 6 Nordeste 16 Nordeste 0 -- -- 52
2019-06-03 01:00:00 18.2 6 Nordeste 23 Nordeste 0.1 -- -- 48
2019-06-03 00:00:00 18.2 5 Nordeste 19 Nordeste 0 -- -- 46
2019-06-02 23:00:00 19.9 9 Nordeste 20 Nordeste 0 -- -- 38
2019-06-02 22:00:00 21.5 10 Nordeste 19 Norte 0 -- -- 35
2019-06-02 21:00:00 24.1 3 Nordeste 6 Nordeste 0 -- -- 31
2019-06-02 20:00:00 26.8 2 Noroeste 12 Noroeste 0 -- -- 27
2019-06-02 19:00:00 28.3 3 Noroeste 19 Noroeste 0 -- -- 27
2019-06-02 18:00:00 30.2 5 Noroeste 19 Noroeste 0 -- -- 25
2019-06-02 17:00:00 30.1 7 Noroeste 22 Sudoeste 0 -- -- 25
2019-06-02 16:00:00 29.9 5 Noroeste 19 Noroeste 0 -- -- 26
2019-06-02 15:00:00 29.8 5 Noroeste 17 Noroeste 0 -- -- 25
2019-06-02 14:00:00 29.1 0 Calma 15 Norte 0 -- -- 28
2019-06-02 13:00:00 28.5 0 Calma 10 Sudeste 0 -- -- 28
2019-06-02 12:00:00 26.8 2 Este 12 Sudeste 0 -- -- 30
2019-06-02 11:00:00 24 5 Sur 13 Sudeste 0 -- -- 37
2019-06-02 10:00:00 20.8 5 Sudeste 15 Sudeste 0 -- -- 43
2019-06-02 09:00:00 16.1 6 Nordeste 14 Norte 0 -- -- 52
2019-06-02 08:00:00 13.4 9 Nordeste 22 Nordeste 0 -- -- 57
2019-06-02 07:00:00 12.4 9 Nordeste 21 Nordeste 0 -- -- 57
2019-06-02 06:00:00 13.2 9 Nordeste 23 Este 0 -- -- 54
2019-06-02 05:00:00 12.8 12 Nordeste 23 Nordeste 0 -- -- 54
2019-06-02 04:00:00 13.2 8 Nordeste 23 Nordeste 0 -- -- 52
2019-06-02 03:00:00 14.1 9 Nordeste 23 Este 0 -- -- 49
2019-06-02 02:00:00 14.1 6 Nordeste 23 Nordeste 0 -- -- 49
2019-06-02 01:00:00 14.7 8 Nordeste 31 Nordeste 0 -- -- 47
2019-06-02 00:00:00 16.4 9 Nordeste 22 Nordeste 0 -- -- 42
2019-06-01 23:00:00 17.6 12 Nordeste 27 Norte 0 -- -- 40
2019-06-01 22:00:00 19.7 11 Nordeste 23 Nordeste 0 -- -- 34
2019-06-01 21:00:00 23.7 3 Nordeste 12 Sudoeste 0 -- -- 29
2019-06-01 20:00:00 26.8 2 Oeste 13 Oeste 0 -- -- 26
2019-06-01 19:00:00 27.8 8 Noroeste 22 Noroeste 0 -- -- 27
2019-06-01 18:00:00 28.6 6 Noroeste 19 Noroeste 0 -- -- 27
2019-06-01 17:00:00 28.6 5 Noroeste 18 Noroeste 0 -- -- 28
2019-06-01 16:00:00 28 3 Norte 22 Oeste 0 -- -- 28
2019-06-01 15:00:00 27.6 2 Sudoeste 16 Oeste 0 -- -- 28
2019-06-01 14:00:00 26.4 4 Nordeste 13 Sur 0 -- -- 31
2019-06-01 13:00:00 25.6 3 Sudeste 14 Sur 0 -- -- 32
2019-06-01 12:00:00 24.7 0 Calma 13 Sur 0 -- -- 35
2019-06-01 11:00:00 22.6 5 Sudeste 16 Sur 0 -- -- 37
2019-06-01 10:00:00 20.3 3 Sudeste 10 Sudeste 0 -- -- 48
2019-06-01 09:00:00 16.6 2 Sudeste 17 Nordeste 0 -- -- 63
2019-06-01 08:00:00 12.4 6 Nordeste 22 Nordeste 0 -- -- 72
2019-06-01 07:00:00 11.9 9 Nordeste 20 Nordeste 0 -- -- 72
2019-06-01 06:00:00 11.5 6 Nordeste 19 Nordeste 0 -- -- 70
2019-06-01 05:00:00 12 6 Nordeste 20 Nordeste 0 -- -- 70
2019-06-01 04:00:00 12.7 5 Nordeste 22 Nordeste 0 -- -- 68
2019-06-01 03:00:00 13.2 12 Nordeste 21 Norte 0 -- -- 67
2019-06-01 02:00:00 13.9 7 Nordeste 22 Nordeste 0 -- -- 63
2019-06-01 01:00:00 15.3 5 Nordeste 24 Nordeste 0 -- -- 58
2019-06-01 00:00:00 16.1 9 Nordeste 23 Nordeste 0 -- -- 55
2019-05-31 23:00:00 17.2 13 Nordeste 21 Nordeste 0 -- -- 51
2019-05-31 22:00:00 20.2 0 Calma 11 Sudoeste 0 -- -- 40
2019-05-31 21:00:00 22 4 Norte 17 Noroeste 0 -- -- 38
2019-05-31 20:00:00 25 7 Noroeste 21 Noroeste 0 -- -- 33
2019-05-31 19:00:00 26.3 8 Noroeste 21 Noroeste 0 -- -- 30
2019-05-31 18:00:00 27.1 9 Noroeste 20 Noroeste 0 -- -- 29
2019-05-31 17:00:00 26.9 5 Noroeste 18 Noroeste 0 -- -- 29
2019-05-31 16:00:00 26.7 5 Noroeste 22 Noroeste 0 -- -- 31
2019-05-31 15:00:00 25.5 6 Norte 20 Noroeste 0 -- -- 32
2019-05-31 14:00:00 24.2 8 Noroeste 26 Noroeste 0 -- -- 34
2019-05-31 13:00:00 23.3 6 Noroeste 18 Noroeste 0 -- -- 34
2019-05-31 12:00:00 21.3 6 Noroeste 15 Noroeste 0 -- -- 36
2019-05-31 11:00:00 19.9 4 Oeste 15 Noroeste 0 -- -- 37
2019-05-31 10:00:00 17 0 Calma 6 Sudoeste 0 -- -- 40
2019-05-31 09:00:00 13.5 0 Calma 10 Nordeste 0 -- -- 46
2019-05-31 08:00:00 8.9 8 Nordeste 16 Nordeste 0 -- -- 51
2019-05-31 07:00:00 8.7 6 Nordeste 20 Nordeste 0 -- -- 48
2019-05-31 06:00:00 9.2 9 Nordeste 22 Nordeste 0 -- -- 45
2019-05-31 05:00:00 10 8 Nordeste 19 Este 0 -- -- 45
2019-05-31 04:00:00 10.4 6 Nordeste 15 Nordeste 0 -- -- 44
2019-05-31 03:00:00 10.6 5 Nordeste 19 Nordeste 0 -- -- 44
2019-05-31 02:00:00 11 9 Nordeste 23 Nordeste 0 -- -- 44
2019-05-31 01:00:00 11.8 10 Nordeste 26 Nordeste 0 -- -- 43
2019-05-31 00:00:00 13 10 Nordeste 22 Nordeste 0 -- -- 43
2019-05-30 23:00:00 15.8 4 Norte 26 Nordeste 0 -- -- 40
2019-05-30 22:00:00 18 20 Nordeste 40 Norte 0 -- -- 35
2019-05-30 21:00:00 20 27 Norte 48 Nordeste 0 -- -- 31
2019-05-30 20:00:00 22.8 24 Norte 38 Nordeste 0 -- -- 25
2019-05-30 19:00:00 25.4 15 Nordeste 26 Noroeste 0 -- -- 23
2019-05-30 18:00:00 26.4 7 Noroeste 23 Oeste 0 -- -- 24
2019-05-30 17:00:00 26.3 7 Noroeste 23 Noroeste 0 -- -- 28
2019-05-30 16:00:00 25.6 5 Oeste 19 Noroeste 0 -- -- 31
2019-05-30 15:00:00 24.3 9 Noroeste 21 Noroeste 0 -- -- 32
2019-05-30 14:00:00 23.1 7 Noroeste 17 Noroeste 0 -- -- 33
2019-05-30 13:00:00 21 5 Noroeste 16 Noroeste 0 -- -- 38
2019-05-30 12:00:00 18.5 6 Norte 14 Norte 0 -- -- 40
2019-05-30 11:00:00 16.5 2 Oeste 14 Sudoeste 0 -- -- 45
2019-05-30 10:00:00 14 3 Este 10 Este 0 -- -- 51
2019-05-30 09:00:00 10.1 0 Calma 12 Norte 0 -- -- 70
2019-05-30 08:00:00 5.5 4 Nordeste 12 Nordeste 0 -- -- 82
2019-05-30 07:00:00 5.5 4 Nordeste 20 Nordeste 0 -- -- 81
2019-05-30 06:00:00 4.7 3 Nordeste 12 Nordeste 0 -- -- 83
2019-05-30 05:00:00 5 0 Calma 6 Este 0 -- -- 81
2019-05-30 04:00:00 5.6 4 Nordeste 17 Nordeste 0 -- -- 79
2019-05-30 03:00:00 6 0 Calma 8 Sudeste 0 -- -- 76
2019-05-30 02:00:00 7.1 4 Sur 7 Sur 0 -- -- 73
2019-05-30 01:00:00 7.3 0 Calma 9 Noroeste 0 -- -- 70
2019-05-30 00:00:00 8.6 5 Noroeste 11 Noroeste 0 -- -- 65
2019-05-29 23:00:00 9.2 4 Noroeste 16 Noroeste 0 -- -- 61
2019-05-29 22:00:00 10.4 9 Oeste 24 Noroeste 0 -- -- 55
2019-05-29 21:00:00 13.3 10 Oeste 22 Norte 0 -- -- 42
2019-05-29 20:00:00 16.8 6 Norte 30 Nordeste 0 -- -- 34
2019-05-29 19:00:00 18.7 8 Noroeste 28 Norte 0 -- -- 31
2019-05-29 18:00:00 18.1 24 Norte 54 Nordeste 0 -- -- 31
2019-05-29 17:00:00 17.8 30 Norte 54 Nordeste 0 -- -- 31
2019-05-29 16:00:00 17.4 37 Norte 57 Norte 0 -- -- 28
2019-05-29 15:00:00 17.2 32 Nordeste 54 Nordeste 0 -- -- 28
2019-05-29 14:00:00 17.8 15 Noroeste 41 Norte 0 -- -- 30
2019-05-29 13:00:00 16.2 23 Nordeste 44 Nordeste 0 -- -- 31
2019-05-29 12:00:00 14.3 25 Nordeste 67 Norte 0 -- -- 33
2019-05-29 11:00:00 13.7 12 Norte 29 Norte 0 -- -- 37
2019-05-29 10:00:00 11.5 7 Noroeste 18 Noroeste 0 -- -- 43
2019-05-29 09:00:00 9.6 3 Sudoeste 33 Norte 0 -- -- 56
2019-05-29 08:00:00 5.5 6 Oeste 16 Noroeste 0 -- -- 78
2019-05-29 07:00:00 4 4 Oeste 13 Oeste 0 -- -- 81
2019-05-29 06:00:00 4 5 Noroeste 11 Oeste 0 -- -- 79
2019-05-29 05:00:00 4.7 6 Oeste 17 Sudoeste 0 -- -- 77
2019-05-29 04:00:00 5.8 5 Sudoeste 23 Oeste 0 -- -- 68
2019-05-29 03:00:00 5.7 4 Oeste 24 Noroeste 0 -- -- 72
2019-05-29 02:00:00 5.4 12 Noroeste 26 Oeste 0 -- -- 75
2019-05-29 01:00:00 6.3 10 Sudoeste 23 Noroeste 0 -- -- 70
2019-05-29 00:00:00 6.8 11 Noroeste 20 Noroeste 0 -- -- 60
2019-05-28 23:00:00 7.8 12 Noroeste 25 Noroeste 0 -- -- 51
2019-05-28 22:00:00 8.8 12 Norte 33 Norte 0 -- -- 43
2019-05-28 21:00:00 10.4 14 Norte 46 Nordeste 0 -- -- 38
2019-05-28 20:00:00 12.8 18 Norte 40 Norte 0 -- -- 36
2019-05-28 19:00:00 14.6 12 Norte 36 Noroeste 0 -- -- 33
2019-05-28 18:00:00 15.7 17 Norte 46 Noroeste 0 -- -- 35
2019-05-28 17:00:00 17.1 22 Norte 59 Nordeste 0 -- -- 34
2019-05-28 16:00:00 17.9 12 Norte 57 Nordeste 0 -- -- 31
2019-05-28 15:00:00 16.5 19 Norte 45 Nordeste 0 -- -- 34
2019-05-28 14:00:00 16.8 15 Norte 45 Norte 0 -- -- 34
2019-05-28 13:00:00 15.8 16 Noroeste 31 Noroeste 0 -- -- 38
2019-05-28 12:00:00 15.6 12 Norte 41 Nordeste 0 -- -- 38
2019-05-28 11:00:00 13.4 17 Norte 41 Nordeste 0 -- -- 40
2019-05-28 10:00:00 11.9 3 Oeste 19 Sudoeste 0 -- -- 49
2019-05-28 09:00:00 9 5 Oeste 18 Sudoeste 0 -- -- 61
2019-05-28 08:00:00 6.4 6 Noroeste 20 Oeste 0 -- -- 68
2019-05-28 07:00:00 5.5 9 Noroeste 18 Noroeste 0 -- -- 72
2019-05-28 06:00:00 5.7 10 Noroeste 24 Noroeste 0 -- -- 70
2019-05-28 05:00:00 5.6 5 Oeste 16 Oeste 0 -- -- 68
2019-05-28 04:00:00 6.1 5 Oeste 23 Noroeste 0 -- -- 68
2019-05-28 03:00:00 6.5 9 Noroeste 21 Noroeste 0 -- -- 69
2019-05-28 02:00:00 7.2 7 Oeste 19 Oeste 0 -- -- 68
2019-05-28 01:00:00 7.8 11 Noroeste 26 Noroeste 0 -- -- 67
2019-05-28 00:00:00 8.1 12 Noroeste 24 Noroeste 0 -- -- 70
2019-05-27 23:00:00 9.3 10 Noroeste 24 Noroeste 0 -- -- 72
2019-05-27 22:00:00 11.3 10 Noroeste 31 Oeste 0 -- -- 67
2019-05-27 21:00:00 14.3 11 Noroeste 35 Noroeste 0 -- -- 49
2019-05-27 20:00:00 17.1 12 Noroeste 30 Oeste 0 -- -- 44
2019-05-27 19:00:00 18 11 Noroeste 43 Norte 0 -- -- 42
2019-05-27 18:00:00 19.2 15 Noroeste 41 Noroeste 0 -- -- 41
2019-05-27 17:00:00 18.4 13 Noroeste 33 Oeste 0 -- -- 42
2019-05-27 16:00:00 21.7 9 Oeste 35 Noroeste 0 -- -- 38
2019-05-27 15:00:00 20.9 12 Noroeste 37 Noroeste 0 -- -- 40
2019-05-27 14:00:00 19.8 9 Noroeste 28 Noroeste 0 -- -- 42
2019-05-27 13:00:00 17.9 6 Sudoeste 21 Noroeste 0 -- -- 48
2019-05-27 12:00:00 16.8 6 Oeste 21 Sudoeste 0 -- -- 49
2019-05-27 11:00:00 13.8 4 Noroeste 14 Noroeste 0 -- -- 57
2019-05-27 10:00:00 12.1 4 Sudoeste 13 Sudoeste 0 -- -- 63
2019-05-27 09:00:00 9.4 0 Calma 9 Sudeste 0 -- -- 81
2019-05-27 08:00:00 6.3 3 Sudeste 13 Nordeste 0 -- -- 88
2019-05-27 07:00:00 4.9 7 Nordeste 12 Nordeste 0 -- -- 87
2019-05-27 06:00:00 5.2 2 Nordeste 4 Nordeste 0 -- -- 84
2019-05-27 05:00:00 6.4 2 Sudeste 7 Sur 0 -- -- 82
2019-05-27 04:00:00 7 2 Sudeste 6 Sur 0 -- -- 81
2019-05-27 03:00:00 7.6 3 Noroeste 5 Noroeste 0 -- -- 79
2019-05-27 02:00:00 8.3 0 Calma 9 Oeste 0 -- -- 78
2019-05-27 01:00:00 8.5 5 Oeste 17 Oeste 0 -- -- 78
2019-05-27 00:00:00 9 9 Noroeste 23 Noroeste 0 -- -- 76
2019-05-26 23:00:00 10 11 Noroeste 21 Noroeste 0 -- -- 70
2019-05-26 22:00:00 11.5 7 Oeste 25 Noroeste 0 -- -- 59
2019-05-26 21:00:00 14.9 9 Oeste 40 Nordeste 0 -- -- 40
2019-05-26 20:00:00 17.4 8 Norte 21 Norte 0 -- -- 34
2019-05-26 19:00:00 18.9 7 Norte 33 Noroeste 0 -- -- 33
2019-05-26 18:00:00 19.2 11 Oeste 34 Oeste 0 -- -- 35
2019-05-26 17:00:00 20.4 10 Noroeste 30 Noroeste 0 -- -- 34
2019-05-26 16:00:00 20.3 8 Noroeste 32 Noroeste 0 -- -- 36
2019-05-26 15:00:00 19.9 8 Noroeste 24 Noroeste 0 -- -- 36
2019-05-26 14:00:00 19.4 9 Noroeste 31 Noroeste 0 -- -- 38
2019-05-26 13:00:00 18.6 8 Oeste 27 Oeste 0 -- -- 40
2019-05-26 12:00:00 16.7 8 Noroeste 23 Noroeste 0 -- -- 43
2019-05-26 11:00:00 14 5 Noroeste 17 Noroeste 0 -- -- 53
2019-05-26 10:00:00 11.2 0 Calma 9 Sudoeste 0 -- -- 59
2019-05-26 09:00:00 9.3 2 Sudoeste 8 Sudeste 0 -- -- 68
2019-05-26 08:00:00 5.4 3 Sur 9 Sur 0 -- -- 85
2019-05-26 07:00:00 4.3 0 Calma 10 Sudeste 0 -- -- 85
2019-05-26 06:00:00 4.9 2 Sur 7 Sur 0 -- -- 83
2019-05-26 05:00:00 5.7 4 Sur 6 Sur 0 -- -- 81
2019-05-26 04:00:00 6.4 0 Calma 12 Noroeste 0 -- -- 79
2019-05-26 03:00:00 6.7 6 Oeste 12 Noroeste 0 -- -- 79
2019-05-26 02:00:00 7 3 Oeste 15 Oeste 0 -- -- 79
2019-05-26 01:00:00 7.3 4 Noroeste 18 Oeste 0 -- -- 79
2019-05-26 00:00:00 7.7 6 Oeste 21 Oeste 0 -- -- 79